Time;durP1;ratioP1;P1;durP2;ratioP2;P2;SDS_P1;SDS_P2;PMS_P1;PMS_P2;Temp;Humidity;BMP_temperature;BMP_pressure;BME280_temperature;BME280_humidity;BME280_pressure;Samples;Min_cycle;Max_cycle;Signal;HPM_P1;HPM_P2
2024/01/02 00:01:07;;;;;;;4.10;0.80;;;6.70;99.90;;;;;;4945217;28;20527;-79
2024/01/02 00:03:33;;;;;;;5.47;0.70;;;6.70;99.90;;;;;;4936792;28;20054;-79
2024/01/02 00:05:59;;;;;;;2.72;0.75;;;6.70;99.90;;;;;;4934965;28;20062;-79
2024/01/02 00:08:24;;;;;;;9.90;1.00;;;6.60;99.90;;;;;;4933433;28;20539;-79
2024/01/02 00:10:50;;;;;;;10.05;1.40;;;6.60;99.90;;;;;;4930463;28;20035;-79
2024/01/02 00:13:15;;;;;;;6.30;1.10;;;6.60;99.90;;;;;;4913072;28;20035;-79
2024/01/02 00:15:41;;;;;;;4.18;0.88;;;6.70;99.90;;;;;;4946492;28;20035;-79
2024/01/02 00:18:06;;;;;;;6.68;1.73;;;6.70;99.90;;;;;;4913654;28;20027;-79
2024/01/02 00:20:32;;;;;;;5.60;1.00;;;6.60;99.90;;;;;;4951306;28;20034;-79
2024/01/02 00:22:57;;;;;;;3.80;0.85;;;6.60;99.90;;;;;;4930550;28;20085;-79
2024/01/02 00:25:23;;;;;;;6.22;0.50;;;6.70;99.90;;;;;;4930202;28;20039;-79
2024/01/02 00:27:48;;;;;;;7.65;1.13;;;6.60;99.90;;;;;;4931754;28;20031;-79
2024/01/02 00:30:14;;;;;;;6.45;0.88;;;6.60;99.90;;;;;;4927872;28;20460;-78
2024/01/02 00:32:40;;;;;;;5.45;0.73;;;6.60;99.90;;;;;;4944657;28;20038;-78
2024/01/02 00:35:06;;;;;;;5.55;1.13;;;6.70;99.90;;;;;;4929975;28;20031;-78
2024/01/02 00:37:32;;;;;;;2.70;0.55;;;6.70;99.90;;;;;;4947794;28;20045;-78
2024/01/02 00:39:57;;;;;;;6.03;1.42;;;6.70;99.90;;;;;;4930828;28;20031;-79
2024/01/02 00:42:23;;;;;;;4.55;0.90;;;6.70;99.90;;;;;;4928847;28;20023;-78
2024/01/02 00:44:48;;;;;;;2.45;0.88;;;6.70;99.90;;;;;;4946353;28;20075;-79
2024/01/02 00:47:14;;;;;;;7.50;1.30;;;6.70;99.90;;;;;;4927721;28;21301;-79
2024/01/02 00:49:40;;;;;;;3.63;0.80;;;6.70;99.90;;;;;;4926848;28;20035;-79
2024/01/02 00:52:05;;;;;;;4.10;1.42;;;6.70;99.90;;;;;;4934142;28;20520;-78
2024/01/02 00:54:31;;;;;;;2.60;0.80;;;6.70;99.90;;;;;;4932764;28;20035;-79
2024/01/02 00:56:56;;;;;;;4.88;0.98;;;6.90;99.90;;;;;;4920197;28;20445;-79
2024/01/02 00:59:22;;;;;;;2.15;0.80;;;6.70;99.90;;;;;;4947145;28;20034;-79
2024/01/02 01:01:47;;;;;;;9.95;0.90;;;6.80;99.90;;;;;;4931633;28;20042;-79
2024/01/02 01:04:13;;;;;;;4.40;0.60;;;6.70;99.90;;;;;;4932009;28;20054;-79
2024/01/02 01:06:38;;;;;;;8.20;0.95;;;6.70;99.90;;;;;;4947232;28;20113;-79
2024/01/02 01:09:04;;;;;;;6.97;1.00;;;6.70;99.90;;;;;;4927828;28;20065;-79
2024/01/02 01:11:30;;;;;;;2.92;0.60;;;6.70;99.90;;;;;;4945541;28;20430;-79
2024/01/02 01:13:55;;;;;;;4.95;1.08;;;6.70;99.90;;;;;;4947620;28;20114;-79
2024/01/02 01:16:21;;;;;;;2.90;1.20;;;6.80;99.90;;;;;;4909285;28;20039;-79
2024/01/02 01:18:46;;;;;;;5.78;0.88;;;6.80;99.90;;;;;;4937725;28;20111;-79
2024/01/02 01:21:12;;;;;;;3.40;0.50;;;6.80;99.90;;;;;;4929848;28;20031;-79
2024/01/02 01:23:37;;;;;;;4.00;0.95;;;6.80;99.90;;;;;;4932033;28;20072;-79
2024/01/02 01:26:03;;;;;;;3.65;0.50;;;6.70;99.90;;;;;;4931838;28;20049;-79
2024/01/02 01:28:29;;;;;;;3.25;0.77;;;6.80;99.90;;;;;;4930250;28;20038;-79
2024/01/02 01:30:54;;;;;;;2.90;0.60;;;6.80;99.90;;;;;;4958437;28;20564;-79
2024/01/02 01:33:20;;;;;;;3.00;0.40;;;6.80;99.90;;;;;;4947613;28;20413;-79
2024/01/02 01:35:46;;;;;;;2.60;0.73;;;6.80;99.90;;;;;;4947583;28;20032;-78
2024/01/02 01:38:11;;;;;;;2.53;0.70;;;6.80;99.90;;;;;;4946683;28;20587;-79
2024/01/02 01:40:37;;;;;;;6.03;0.90;;;6.80;99.90;;;;;;4931313;28;20034;-79
2024/01/02 01:43:11;;;;;;;3.92;0.70;;;6.80;99.90;;;;;;4943541;28;20529;-78
2024/01/02 01:45:37;;;;;;;1.83;0.45;;;6.80;99.90;;;;;;4932583;28;20484;-78
2024/01/02 01:48:07;;;;;;;1.77;0.52;;;6.80;99.90;;;;;;4937374;28;20114;-79
2024/01/02 01:50:33;;;;;;;5.07;0.70;;;6.80;99.90;;;;;;4932129;28;20035;-78
2024/01/02 01:52:59;;;;;;;4.35;0.82;;;6.80;99.90;;;;;;4916862;28;20051;-78
2024/01/02 01:55:24;;;;;;;5.88;0.90;;;6.80;99.90;;;;;;4946838;28;20035;-78
2024/01/02 01:57:50;;;;;;;6.50;0.90;;;6.80;99.90;;;;;;4946759;28;20110;-78
2024/01/02 02:00:15;;;;;;;3.88;0.70;;;6.80;99.90;;;;;;4947437;28;20150;-80
2024/01/02 02:02:41;;;;;;;6.28;0.80;;;6.80;99.90;;;;;;4930170;28;20070;-79
2024/01/02 02:05:07;;;;;;;2.30;0.65;;;6.80;99.90;;;;;;4932686;28;20034;-80
2024/01/02 02:07:32;;;;;;;5.22;0.90;;;6.80;99.90;;;;;;4912438;28;20053;-79
2024/01/02 02:09:58;;;;;;;5.60;0.63;;;6.80;99.90;;;;;;4912323;28;20038;-79
2024/01/02 02:12:24;;;;;;;1.63;0.80;;;6.80;99.90;;;;;;4948354;28;20034;-79
2024/01/02 02:14:51;;;;;;;2.72;0.43;;;6.80;99.90;;;;;;4948306;28;20117;-79
2024/01/02 02:17:19;;;;;;;3.58;1.98;;;6.80;99.90;;;;;;4951822;28;20444;-79
2024/01/02 02:19:45;;;;;;;8.20;1.58;;;6.80;99.90;;;;;;4930182;28;20031;-79
2024/01/02 02:22:12;;;;;;;6.97;1.55;;;6.80;99.90;;;;;;4911749;28;20038;-79
2024/01/02 02:24:37;;;;;;;3.13;0.82;;;6.80;99.90;;;;;;4930595;28;20493;-79
2024/01/02 02:27:03;;;;;;;1.65;0.88;;;6.80;99.90;;;;;;4916673;28;20041;-79
2024/01/02 02:29:29;;;;;;;3.75;1.23;;;6.80;99.90;;;;;;4930081;28;20039;-79
2024/01/02 02:31:55;;;;;;;4.35;1.13;;;6.80;99.90;;;;;;4930155;28;20031;-79
2024/01/02 02:34:20;;;;;;;2.42;1.10;;;6.80;99.90;;;;;;4930206;28;20053;-79
2024/01/02 02:36:46;;;;;;;1.77;0.98;;;6.80;99.90;;;;;;4942284;28;20064;-79
2024/01/02 02:39:11;;;;;;;4.78;0.93;;;6.80;99.90;;;;;;4930490;28;20476;-79
2024/01/02 02:41:37;;;;;;;1.83;0.68;;;6.80;99.90;;;;;;4930580;28;20049;-79
2024/01/02 02:44:02;;;;;;;1.08;0.60;;;6.80;99.90;;;;;;4929713;28;20065;-79
2024/01/02 02:46:28;;;;;;;0.40;0.30;;;6.80;99.90;;;;;;4932404;28;20059;-79
2024/01/02 02:48:53;;;;;;;3.47;0.38;;;6.80;99.90;;;;;;4931463;28;20077;-79
2024/01/02 02:51:19;;;;;;;1.23;0.38;;;6.80;99.90;;;;;;4929972;28;20085;-80
2024/01/02 02:53:44;;;;;;;0.60;0.50;;;6.80;99.90;;;;;;4917110;28;20381;-79
2024/01/02 02:56:16;;;;;;;0.57;0.30;;;6.80;99.90;;;;;;4963234;28;20557;-79
2024/01/02 02:58:42;;;;;;;1.98;0.82;;;6.80;99.90;;;;;;4935704;28;20045;-80
2024/01/02 03:01:07;;;;;;;2.10;0.55;;;6.80;99.90;;;;;;4917344;28;20039;-80
2024/01/02 03:03:33;;;;;;;0.57;0.43;;;6.80;99.90;;;;;;4928853;28;20047;-80
2024/01/02 03:05:58;;;;;;;1.02;0.40;;;6.80;99.90;;;;;;4937486;28;20035;-79
2024/01/02 03:08:24;;;;;;;1.50;0.40;;;6.80;99.90;;;;;;4934342;28;20035;-79
2024/01/02 03:10:51;;;;;;;2.22;0.35;;;6.80;99.90;;;;;;4936764;28;20110;-79
2024/01/02 03:13:17;;;;;;;0.35;0.20;;;6.80;99.90;;;;;;4922824;28;20154;-80
2024/01/02 03:15:42;;;;;;;0.20;0.20;;;6.80;99.90;;;;;;4935292;28;20400;-79
2024/01/02 03:18:08;;;;;;;3.90;0.40;;;6.80;99.90;;;;;;4930696;28;20558;-79
2024/01/02 03:20:33;;;;;;;2.05;0.10;;;6.70;99.90;;;;;;4917194;28;20027;-80
2024/01/02 03:22:59;;;;;;;1.80;0.40;;;6.80;99.90;;;;;;4947385;28;20039;-79
2024/01/02 03:25:25;;;;;;;0.10;0.10;;;6.80;99.90;;;;;;4949999;28;20054;-79
2024/01/02 03:27:50;;;;;;;0.13;0.10;;;6.80;99.90;;;;;;4950184;28;20038;-80
2024/01/02 03:30:16;;;;;;;1.23;0.20;;;6.80;99.90;;;;;;4918955;28;20038;-79
2024/01/02 03:32:42;;;;;;;1.35;0.35;;;6.80;99.90;;;;;;4950695;28;20109;-79
2024/01/02 03:35:09;;;;;;;0.10;0.10;;;6.80;99.90;;;;;;4961237;28;20389;-78
2024/01/02 03:37:35;;;;;;;1.85;0.20;;;6.80;99.90;;;;;;4935780;28;20121;-79
2024/01/02 03:40:01;;;;;;;0.30;0.08;;;6.80;99.90;;;;;;4950591;28;20608;-79
2024/01/02 03:42:26;;;;;;;0.10;0.05;;;6.80;99.90;;;;;;4949836;28;20117;-79
2024/01/02 03:44:52;;;;;;;0.20;0.10;;;6.80;99.90;;;;;;4932931;28;20408;-79
2024/01/02 03:47:17;;;;;;;1.88;0.20;;;6.80;99.90;;;;;;4933636;28;20031;-80
2024/01/02 03:49:43;;;;;;;1.40;0.05;;;6.80;99.90;;;;;;4928710;28;20031;-80
2024/01/02 03:52:08;;;;;;;1.10;0.20;;;6.80;99.90;;;;;;4928800;28;20042;-80
2024/01/02 03:54:34;;;;;;;0.60;0.17;;;6.80;99.90;;;;;;4933884;28;20042;-79
2024/01/02 03:56:59;;;;;;;0.47;0.10;;;6.80;99.90;;;;;;4950235;28;20057;-79
2024/01/02 03:59:26;;;;;;;0.08;0.00;;;6.80;99.90;;;;;;4921375;28;20460;-80
2024/01/02 04:01:52;;;;;;;0.20;0.00;;;6.80;99.90;;;;;;4932369;28;20039;-79
2024/01/02 04:04:17;;;;;;;0.13;0.00;;;6.80;99.90;;;;;;4932770;28;20402;-79
2024/01/02 04:06:43;;;;;;;3.17;0.55;;;6.80;99.90;;;;;;4919097;28;20034;-78
2024/01/02 04:09:10;;;;;;;2.20;0.20;;;6.80;99.90;;;;;;4935087;28;20115;-79
2024/01/02 04:11:35;;;;;;;0.43;0.05;;;6.80;99.90;;;;;;4934264;28;20511;-78
2024/01/02 04:14:01;;;;;;;0.05;0.05;;;6.80;99.90;;;;;;4948601;28;20036;-78
2024/01/02 04:16:26;;;;;;;0.25;0.13;;;6.80;99.90;;;;;;4930528;28;20118;-78
2024/01/02 04:18:52;;;;;;;0.88;0.13;;;6.80;99.90;;;;;;4947940;28;20042;-78
2024/01/02 04:21:17;;;;;;;0.10;0.03;;;6.80;99.90;;;;;;4946155;28;20123;-78
2024/01/02 04:23:43;;;;;;;0.43;0.10;;;6.80;99.90;;;;;;4915769;28;20039;-78
2024/01/02 04:26:09;;;;;;;0.20;0.10;;;6.80;99.90;;;;;;4932209;28;20066;-78
2024/01/02 04:28:34;;;;;;;0.22;0.10;;;6.90;99.90;;;;;;4948522;28;20055;-79
2024/01/02 04:31:00;;;;;;;0.20;0.17;;;6.80;99.90;;;;;;4920194;28;20030;-79
2024/01/02 04:33:25;;;;;;;0.57;0.10;;;6.90;99.90;;;;;;4917731;28;20089;-79
2024/01/02 04:35:51;;;;;;;0.73;0.05;;;6.80;99.90;;;;;;4949681;28;20033;-78
2024/01/02 04:38:16;;;;;;;0.22;0.03;;;6.90;99.90;;;;;;4919884;28;20055;-78
2024/01/02 04:40:42;;;;;;;0.50;0.00;;;6.90;99.90;;;;;;4946561;28;20595;-78
2024/01/02 04:43:07;;;;;;;0.05;0.00;;;6.90;99.90;;;;;;4918831;28;20027;-76
2024/01/02 04:45:33;;;;;;;1.27;0.13;;;6.90;99.90;;;;;;4946890;28;20440;-78
2024/01/02 04:47:58;;;;;;;3.00;0.10;;;6.90;99.90;;;;;;4931582;28;20034;-79
2024/01/02 04:50:24;;;;;;;0.10;0.10;;;6.90;99.90;;;;;;4948236;28;20023;-78
2024/01/02 04:52:49;;;;;;;3.00;0.00;;;6.90;99.90;;;;;;4933207;28;20023;-78
2024/01/02 04:55:15;;;;;;;0.55;0.10;;;6.90;99.90;;;;;;4919320;28;20022;-78
2024/01/02 04:57:40;;;;;;;0.17;0.17;;;6.90;99.90;;;;;;4962210;28;20117;-78
2024/01/02 05:00:07;;;;;;;0.60;0.10;;;7.00;99.90;;;;;;4944009;28;20700;-79
2024/01/02 05:02:32;;;;;;;0.47;0.47;;;7.00;99.90;;;;;;4933591;28;20035;-80
2024/01/02 05:04:58;;;;;;;0.10;0.10;;;7.00;99.90;;;;;;4934503;28;20031;-79
2024/01/02 05:07:23;;;;;;;0.10;0.10;;;7.00;99.90;;;;;;4930150;28;20035;-79
2024/01/02 05:09:49;;;;;;;0.28;0.10;;;7.10;99.90;;;;;;4944572;28;20441;-79
2024/01/02 05:12:15;;;;;;;0.00;0.00;;;7.00;99.90;;;;;;4913711;28;20501;-79
2024/01/02 05:14:41;;;;;;;0.70;0.52;;;7.10;99.90;;;;;;4932594;28;20037;-79
2024/01/02 05:17:07;;;;;;;0.15;0.00;;;7.10;99.90;;;;;;4947029;28;20030;-78
2024/01/02 05:19:33;;;;;;;1.75;0.10;;;7.10;99.90;;;;;;4926040;28;20046;-78
2024/01/02 05:21:58;;;;;;;0.63;0.10;;;7.10;99.90;;;;;;4944723;28;20550;-77
2024/01/02 05:24:24;;;;;;;2.58;0.88;;;7.10;99.90;;;;;;4959501;28;20593;-79
2024/01/02 05:26:49;;;;;;;0.10;0.10;;;7.20;99.90;;;;;;4932348;28;20030;-79
2024/01/02 05:29:15;;;;;;;0.20;0.20;;;7.20;99.90;;;;;;4943839;28;20043;-77
2024/01/02 05:31:41;;;;;;;0.90;0.03;;;7.20;99.90;;;;;;4944741;28;20061;-77
2024/01/02 05:34:06;;;;;;;0.00;0.00;;;7.20;99.90;;;;;;4947204;28;20066;-77
2024/01/02 05:36:32;;;;;;;1.08;0.98;;;7.30;99.90;;;;;;4917512;28;20074;-77
2024/01/02 05:38:57;;;;;;;0.10;0.10;;;7.30;99.90;;;;;;4925163;28;20114;-77
2024/01/02 05:41:23;;;;;;;0.08;0.08;;;7.30;99.90;;;;;;4945067;28;20428;-77
2024/01/02 05:43:49;;;;;;;0.47;0.10;;;7.40;99.90;;;;;;4941629;28;20817;-77
2024/01/02 05:46:15;;;;;;;1.00;0.08;;;7.40;99.90;;;;;;4943097;28;20448;-77
2024/01/02 05:48:40;;;;;;;0.55;0.20;;;7.40;99.90;;;;;;4943782;28;20030;-77
2024/01/02 05:51:06;;;;;;;0.15;0.00;;;7.40;99.90;;;;;;4928661;28;20065;-78
2024/01/02 05:53:31;;;;;;;0.00;0.00;;;7.50;99.90;;;;;;4927475;28;20110;-77
2024/01/02 05:55:57;;;;;;;0.15;0.00;;;7.60;99.90;;;;;;4943942;28;20030;-77
2024/01/02 05:58:22;;;;;;;0.00;0.00;;;7.50;99.90;;;;;;4932688;28;20027;-78
2024/01/02 06:00:48;;;;;;;0.00;0.00;;;7.60;99.90;;;;;;4942292;28;20221;-78
2024/01/02 06:03:14;;;;;;;0.00;0.00;;;7.60;99.90;;;;;;4944455;28;20043;-78
2024/01/02 06:05:39;;;;;;;0.43;0.00;;;7.60;99.90;;;;;;4928458;28;20026;-78
2024/01/02 06:08:05;;;;;;;0.10;0.10;;;7.70;99.90;;;;;;4913379;28;20046;-77
2024/01/02 06:10:30;;;;;;;0.00;0.00;;;7.70;99.90;;;;;;4913038;28;20027;-79
2024/01/02 06:12:56;;;;;;;0.00;0.00;;;7.80;99.90;;;;;;4946318;28;20050;-78
2024/01/02 06:15:22;;;;;;;0.10;0.10;;;7.80;99.90;;;;;;4915892;28;20030;-77
2024/01/02 06:17:47;;;;;;;0.00;0.00;;;7.80;99.90;;;;;;4944225;28;20038;-78
2024/01/02 06:20:13;;;;;;;0.20;0.00;;;7.90;99.90;;;;;;4943963;28;20079;-78
2024/01/02 06:22:38;;;;;;;0.08;0.08;;;7.90;99.90;;;;;;4945896;28;20035;-78
2024/01/02 06:25:10;;;;;;;0.15;0.13;;;8.00;99.90;;;;;;4960400;28;20138;-78
2024/01/02 06:27:36;;;;;;;0.15;0.00;;;8.00;99.90;;;;;;4946412;28;20042;-78
2024/01/02 06:30:05;;;;;;;0.08;0.08;;;8.00;99.90;;;;;;4930737;28;20035;-78
2024/01/02 06:32:31;;;;;;;0.10;0.10;;;8.00;99.90;;;;;;4930071;28;20110;-78
2024/01/02 06:34:57;;;;;;;0.10;0.10;;;8.10;99.90;;;;;;4932442;28;20169;-77
2024/01/02 06:37:23;;;;;;;0.20;0.20;;;8.10;99.90;;;;;;4933974;28;20042;-78
2024/01/02 06:39:50;;;;;;;0.20;0.20;;;8.10;99.90;;;;;;4947725;28;20039;-78
2024/01/02 06:42:16;;;;;;;0.20;0.20;;;8.10;99.90;;;;;;4916738;28;20186;-78
2024/01/02 06:44:42;;;;;;;0.10;0.10;;;8.10;99.90;;;;;;4934057;28;20106;-78
2024/01/02 06:47:08;;;;;;;0.50;0.35;;;8.20;99.90;;;;;;4934742;28;20600;-78
2024/01/02 06:49:33;;;;;;;0.20;0.20;;;8.30;99.90;;;;;;4947717;28;20027;-78
2024/01/02 06:51:59;;;;;;;0.10;0.10;;;8.30;99.90;;;;;;4914765;28;20031;-77
2024/01/02 06:54:24;;;;;;;0.20;0.20;;;8.30;99.90;;;;;;4914979;28;20378;-78
2024/01/02 06:56:51;;;;;;;0.30;0.30;;;8.40;99.90;;;;;;4948276;28;20035;-77
2024/01/02 06:59:16;;;;;;;0.20;0.20;;;8.40;99.90;;;;;;4932712;28;20050;-77
2024/01/02 07:01:42;;;;;;;0.43;0.43;;;8.50;99.90;;;;;;4930154;28;20402;-78
2024/01/02 07:04:07;;;;;;;0.30;0.30;;;8.50;99.90;;;;;;4932887;28;20389;-77
2024/01/02 07:06:33;;;;;;;0.65;0.60;;;8.60;99.90;;;;;;4932299;28;20065;-78
2024/01/02 07:08:59;;;;;;;0.20;0.20;;;8.60;99.90;;;;;;4931787;28;20110;-78
2024/01/02 07:11:24;;;;;;;0.50;0.50;;;8.60;99.90;;;;;;4933389;28;20109;-77
2024/01/02 07:13:50;;;;;;;1.95;0.47;;;8.60;99.90;;;;;;4945670;28;20500;-78
2024/01/02 07:16:15;;;;;;;0.35;0.35;;;8.60;99.90;;;;;;4914070;28;20037;-78
2024/01/02 07:18:41;;;;;;;0.43;0.40;;;8.70;99.90;;;;;;4926207;28;20039;-78
2024/01/02 07:21:07;;;;;;;0.30;0.30;;;8.70;99.90;;;;;;4917663;28;20122;-78
2024/01/02 07:23:33;;;;;;;1.08;0.63;;;8.70;99.90;;;;;;4947982;28;20118;-78
2024/01/02 07:25:58;;;;;;;0.55;0.50;;;8.80;99.90;;;;;;4929346;28;20053;-78
2024/01/02 07:28:25;;;;;;;1.08;0.60;;;8.80;99.90;;;;;;4947939;28;20034;-78
2024/01/02 07:30:51;;;;;;;0.50;0.47;;;8.90;99.90;;;;;;4963423;28;20105;-79
2024/01/02 07:33:16;;;;;;;0.52;0.50;;;8.90;99.90;;;;;;4916680;28;20556;-78
2024/01/02 07:35:42;;;;;;;0.50;0.50;;;8.90;99.90;;;;;;4962598;28;20097;-78
2024/01/02 07:38:08;;;;;;;0.30;0.30;;;9.00;99.90;;;;;;4934126;28;20089;-78
2024/01/02 07:40:33;;;;;;;0.50;0.30;;;9.10;99.90;;;;;;4945643;28;20035;-78
2024/01/02 07:42:59;;;;;;;0.47;0.30;;;9.10;99.90;;;;;;4946164;28;20033;-78
2024/01/02 07:45:24;;;;;;;0.30;0.30;;;9.10;99.90;;;;;;4949306;28;20027;-78
2024/01/02 07:47:50;;;;;;;0.22;0.22;;;9.20;99.90;;;;;;4932860;28;20445;-79
2024/01/02 07:50:16;;;;;;;0.32;0.30;;;9.20;99.90;;;;;;4933312;28;20038;-78
2024/01/02 07:52:41;;;;;;;0.22;0.22;;;9.30;99.90;;;;;;4933664;28;20038;-78
2024/01/02 07:55:09;;;;;;;0.20;0.20;;;9.30;99.90;;;;;;4934482;28;20058;-78
2024/01/02 07:57:35;;;;;;;0.88;0.38;;;9.40;99.90;;;;;;4916261;28;20043;-78
2024/01/02 08:00:01;;;;;;;0.30;0.30;;;9.40;99.90;;;;;;4928444;28;20087;-78
2024/01/02 08:02:26;;;;;;;0.20;0.20;;;9.50;99.90;;;;;;4931806;28;20030;-78
2024/01/02 08:04:52;;;;;;;0.50;0.38;;;9.50;99.90;;;;;;4933098;28;20043;-78
2024/01/02 08:07:17;;;;;;;0.30;0.30;;;9.50;99.90;;;;;;4944860;28;20039;-78
2024/01/02 08:09:43;;;;;;;0.30;0.25;;;9.50;99.90;;;;;;4929570;28;20043;-79
2024/01/02 08:12:09;;;;;;;0.30;0.30;;;9.60;99.90;;;;;;4930152;28;20041;-78
2024/01/02 08:14:34;;;;;;;1.08;0.30;;;9.60;99.90;;;;;;4945204;28;20043;-78
2024/01/02 08:17:00;;;;;;;0.20;0.20;;;9.60;99.90;;;;;;4932480;28;20080;-78
2024/01/02 08:19:25;;;;;;;1.10;0.28;;;9.70;99.90;;;;;;4928378;28;20037;-77
2024/01/02 08:21:51;;;;;;;1.20;0.30;;;9.70;99.90;;;;;;4930888;28;20051;-78
2024/01/02 08:24:17;;;;;;;1.85;0.43;;;9.80;99.90;;;;;;4946175;28;20034;-78
2024/01/02 08:26:43;;;;;;;0.30;0.30;;;9.70;99.90;;;;;;4928660;28;20762;-79
2024/01/02 08:29:09;;;;;;;0.20;0.20;;;9.80;99.90;;;;;;4951366;28;20035;-79
2024/01/02 08:31:34;;;;;;;2.53;0.57;;;9.90;99.90;;;;;;4940735;28;20035;-80
2024/01/02 08:34:00;;;;;;;1.75;0.28;;;9.80;99.90;;;;;;4924533;28;20038;-80
2024/01/02 08:36:26;;;;;;;0.20;0.17;;;9.80;99.90;;;;;;4944254;28;20050;-80
2024/01/02 08:38:51;;;;;;;2.40;0.63;;;9.80;99.90;;;;;;4944942;28;20035;-78
2024/01/02 08:41:17;;;;;;;1.38;0.52;;;9.90;99.90;;;;;;4945469;28;20054;-78
2024/01/02 08:43:42;;;;;;;0.22;0.13;;;9.90;99.90;;;;;;4931787;28;20113;-79
2024/01/02 08:46:08;;;;;;;0.40;0.30;;;9.90;99.90;;;;;;4931900;28;20075;-78
2024/01/02 08:48:36;;;;;;;0.43;0.43;;;9.90;99.90;;;;;;4929202;28;20393;-78
2024/01/02 08:51:01;;;;;;;1.80;0.43;;;10.00;99.90;;;;;;4929589;28;20111;-78
2024/01/02 08:53:27;;;;;;;0.63;0.20;;;10.00;99.90;;;;;;4929432;28;20504;-78
2024/01/02 08:55:52;;;;;;;0.30;0.30;;;10.00;99.90;;;;;;4948652;28;20039;-78
2024/01/02 08:58:18;;;;;;;1.05;0.40;;;10.00;99.90;;;;;;4920700;28;20034;-78
2024/01/02 09:00:44;;;;;;;0.82;0.30;;;10.10;99.90;;;;;;4960935;28;20034;-78
2024/01/02 09:03:09;;;;;;;1.27;0.20;;;10.10;99.90;;;;;;4917736;28;20035;-78
2024/01/02 09:05:35;;;;;;;0.40;0.35;;;10.10;99.90;;;;;;4942004;28;20032;-79
2024/01/02 09:08:01;;;;;;;1.38;0.28;;;10.10;99.90;;;;;;4920491;28;20050;-78
2024/01/02 09:10:26;;;;;;;0.40;0.40;;;10.10;99.90;;;;;;4930402;28;20038;-78
2024/01/02 09:12:53;;;;;;;0.10;0.10;;;10.10;99.90;;;;;;4959310;28;20125;-78
2024/01/02 09:15:19;;;;;;;0.88;0.43;;;10.20;99.90;;;;;;4915580;28;20038;-78
2024/01/02 09:17:45;;;;;;;0.30;0.25;;;10.20;99.90;;;;;;4942725;28;20043;-78
2024/01/02 09:20:11;;;;;;;0.30;0.30;;;10.20;99.90;;;;;;4933775;28;20018;-78
2024/01/02 09:22:37;;;;;;;0.40;0.40;;;10.20;99.90;;;;;;4960149;28;20420;-78
2024/01/02 09:25:03;;;;;;;1.15;0.95;;;10.30;99.90;;;;;;4959280;28;20556;-79
2024/01/02 09:27:29;;;;;;;0.47;0.40;;;10.30;99.90;;;;;;4945206;28;20181;-78
2024/01/02 09:29:55;;;;;;;0.52;0.47;;;10.30;99.90;;;;;;4929731;28;20058;-78
2024/01/02 09:32:21;;;;;;;0.90;0.90;;;10.30;99.90;;;;;;4927599;28;20152;-78
2024/01/02 09:34:46;;;;;;;0.60;0.60;;;10.40;99.90;;;;;;4915807;28;20445;-77
2024/01/02 09:37:12;;;;;;;0.57;0.52;;;10.40;99.90;;;;;;4931953;28;20544;-77
2024/01/02 09:39:37;;;;;;;0.70;0.70;;;10.40;99.90;;;;;;4945601;28;20121;-76
2024/01/02 09:42:24;;;;;;;0.17;0.17;;;10.40;99.90;;;;;;4946941;28;20063;-77
2024/01/02 09:44:49;;;;;;;;;;;10.40;99.90;;;;;;4946342;28;20135;-77
2024/01/02 09:47:22;;;;;;;1.47;0.77;;;10.40;99.90;;;;;;4959725;28;19918;-77
2024/01/02 09:50:17;;;;;;;1.00;0.90;;;10.40;99.90;;;;;;4941981;28;20043;-77
2024/01/02 09:53:31;;;;;;;1.75;0.80;;;10.50;99.90;;;;;;4924902;28;20043;-79
2024/01/02 09:56:17;;;;;;;1.25;0.50;;;10.50;99.90;;;;;;4951658;28;20061;-79
2024/01/02 09:58:49;;;;;;;1.10;0.73;;;10.50;99.90;;;;;;4945528;28;20026;-79
2024/01/02 10:01:27;;;;;;;0.82;0.55;;;10.50;99.90;;;;;;4946413;28;20034;-79
2024/01/02 10:04:21;;;;;;;0.57;0.55;;;10.50;99.90;;;;;;4955165;28;20106;-78
2024/01/02 10:07:04;;;;;;;1.20;0.98;;;10.50;99.90;;;;;;4943197;28;20043;-79
2024/01/02 10:10:09;;;;;;;2.08;0.77;;;10.50;99.90;;;;;;4945243;28;20043;-78
2024/01/02 10:12:52;;;;;;;0.80;0.75;;;10.50;99.90;;;;;;4953441;28;20146;-78
2024/01/02 10:15:17;;;;;;;0.65;0.50;;;10.50;99.90;;;;;;4921769;28;20035;-79
2024/01/02 10:18:16;;;;;;;0.35;0.35;;;10.60;99.90;;;;;;4961299;28;20053;-79
2024/01/02 10:21:04;;;;;;;0.50;0.50;;;10.60;99.90;;;;;;4943786;28;20034;-78
2024/01/02 10:23:40;;;;;;;0.95;0.60;;;10.60;99.90;;;;;;4960654;28;20442;-79
2024/01/02 10:26:07;;;;;;;0.77;0.55;;;10.60;99.90;;;;;;4929091;28;20042;-77
2024/01/02 10:28:38;;;;;;;1.10;0.50;;;10.60;99.90;;;;;;4934062;28;20512;-77
2024/01/02 10:31:25;;;;;;;0.40;0.22;;;10.60;99.90;;;;;;4913374;28;20481;-77
2024/01/02 10:33:58;;;;;;;0.65;0.60;;;10.60;99.90;;;;;;4945482;28;20500;-77
2024/01/02 10:36:25;;;;;;;1.20;0.47;;;10.60;99.90;;;;;;4946154;28;20121;-77
2024/01/02 10:39:04;;;;;;;0.40;0.40;;;10.60;99.90;;;;;;4928579;28;20047;-77
2024/01/02 10:42:07;;;;;;;1.30;0.43;;;10.60;99.90;;;;;;4943777;28;20134;-77
2024/01/02 10:44:55;;;;;;;0.70;0.40;;;10.60;99.90;;;;;;4946862;28;20035;-79
2024/01/02 10:47:38;;;;;;;0.77;0.43;;;10.70;99.90;;;;;;4938687;28;20046;-79
2024/01/02 10:50:04;;;;;;;0.35;0.35;;;10.70;99.90;;;;;;4930805;28;20322;-79
2024/01/02 10:53:14;;;;;;;0.20;0.20;;;10.70;99.90;;;;;;4917038;28;20023;-79
2024/01/02 10:55:47;;;;;;;0.50;0.30;;;10.80;99.90;;;;;;4935851;28;20043;-79
2024/01/02 10:58:20;;;;;;;0.22;0.20;;;10.70;99.90;;;;;;4944444;28;20035;-79
2024/01/02 11:00:48;;;;;;;0.50;0.30;;;10.80;99.90;;;;;;4945234;28;20035;-79
2024/01/02 11:03:15;;;;;;;0.32;0.17;;;10.80;99.90;;;;;;4956796;28;20034;-79
2024/01/02 11:06:26;;;;;;;0.08;0.08;;;10.70;99.90;;;;;;4944201;28;20143;-78
2024/01/02 11:08:58;;;;;;;0.10;0.10;;;10.70;99.90;;;;;;4926629;28;20517;-78
2024/01/02 11:11:24;;;;;;;0.40;0.20;;;10.70;99.90;;;;;;4939544;28;20454;-78
2024/01/02 11:13:50;;;;;;;0.30;0.20;;;10.70;99.90;;;;;;4929619;28;20027;-79
2024/01/02 11:16:17;;;;;;;0.13;0.13;;;10.70;99.90;;;;;;4946824;28;20513;-79
2024/01/02 11:18:48;;;;;;;0.65;0.20;;;10.70;99.90;;;;;;4930692;28;20126;-79
2024/01/02 11:21:38;;;;;;;1.65;0.20;;;10.70;99.90;;;;;;4932253;28;20039;-79
2024/01/02 11:24:06;;;;;;;0.30;0.10;;;10.70;99.90;;;;;;4948436;28;20114;-79
2024/01/02 11:26:38;;;;;;;0.10;0.10;;;10.70;99.90;;;;;;4931319;28;20039;-79
2024/01/02 11:29:03;;;;;;;0.10;0.10;;;10.70;99.90;;;;;;4947947;28;20174;-79
2024/01/02 11:31:32;;;;;;;0.25;0.10;;;10.80;99.90;;;;;;4931940;28;20113;-80
2024/01/02 11:34:22;;;;;;;0.80;0.20;;;10.70;99.90;;;;;;4918834;28;20043;-80
2024/01/02 11:36:52;;;;;;;0.15;0.15;;;10.80;99.90;;;;;;4947426;28;20039;-80
2024/01/02 11:39:36;;;;;;;0.15;0.10;;;10.80;99.90;;;;;;4946569;28;20050;-80
2024/01/02 11:42:12;;;;;;;4.63;0.20;;;10.80;99.90;;;;;;4945944;28;20035;-80
2024/01/02 11:44:58;;;;;;;0.08;0.00;;;10.70;99.90;;;;;;4947476;28;20063;-80
2024/01/02 11:47:30;;;;;;;0.88;0.10;;;10.70;99.90;;;;;;4959059;28;20039;-80
2024/01/02 11:49:59;;;;;;;0.30;0.10;;;10.70;99.90;;;;;;4960445;28;20720;-80
2024/01/02 11:52:24;;;;;;;0.10;0.10;;;10.70;99.90;;;;;;4928979;28;20043;-81
2024/01/02 11:55:14;;;;;;;0.85;0.05;;;10.60;99.90;;;;;;4946923;28;20031;-80
2024/01/02 11:57:51;;;;;;;0.38;0.20;;;10.70;99.90;;;;;;4932820;28;20538;-80
2024/01/02 12:00:32;;;;;;;0.63;0.13;;;10.70;99.90;;;;;;4942684;28;20101;-80
2024/01/02 12:03:07;;;;;;;0.10;0.10;;;10.70;99.90;;;;;;4944346;28;20058;-80
2024/01/02 12:05:40;;;;;;;0.10;0.10;;;10.70;99.90;;;;;;4953711;28;20038;-80
2024/01/02 12:08:17;;;;;;;0.45;0.20;;;10.70;99.90;;;;;;4931021;28;20493;-78
2024/01/02 12:10:48;;;;;;;1.55;0.17;;;10.60;99.90;;;;;;4948248;28;20131;-78
2024/01/02 12:13:28;;;;;;;0.20;0.17;;;10.60;99.90;;;;;;4957180;28;20114;-77
2024/01/02 12:16:00;;;;;;;0.00;0.00;;;10.60;99.90;;;;;;4931660;28;20035;-77
2024/01/02 12:18:27;;;;;;;0.20;0.10;;;10.50;99.90;;;;;;4941356;28;20512;-77
2024/01/02 12:20:52;;;;;;;0.73;0.00;;;10.50;99.90;;;;;;4941504;28;20035;-77
2024/01/02 12:23:18;;;;;;;0.10;0.10;;;10.50;99.90;;;;;;4965138;28;20035;-76
2024/01/02 12:25:44;;;;;;;0.77;0.20;;;10.50;99.90;;;;;;4926195;28;20082;-77
2024/01/02 12:28:10;;;;;;;0.35;0.10;;;10.50;99.90;;;;;;4919248;28;20119;-78
2024/01/02 12:30:57;;;;;;;2.55;0.15;;;10.40;99.90;;;;;;4931546;28;20035;-76
2024/01/02 12:33:36;;;;;;;0.40;0.20;;;10.40;99.90;;;;;;4964073;28;20027;-77
2024/01/02 12:36:36;;;;;;;0.20;0.20;;;10.40;99.90;;;;;;4960473;28;20601;-78
2024/01/02 12:39:05;;;;;;;0.32;0.10;;;10.40;99.90;;;;;;4932530;28;20485;-78
2024/01/02 12:41:35;;;;;;;0.20;0.20;;;10.40;99.90;;;;;;4930236;28;20117;-78
2024/01/02 12:44:03;;;;;;;0.30;0.30;;;10.40;99.90;;;;;;4957599;28;20045;-78
2024/01/02 12:46:33;;;;;;;0.60;0.60;;;10.30;99.90;;;;;;4946055;28;20039;-77
2024/01/02 12:49:28;;;;;;;1.52;0.63;;;10.30;99.90;;;;;;4952393;28;21082;-79
2024/01/02 12:52:04;;;;;;;0.70;0.43;;;10.30;99.90;;;;;;4926977;28;20746;-77
2024/01/02 12:54:30;;;;;;;1.95;0.90;;;10.30;99.90;;;;;;4947342;28;20475;-77
2024/01/02 12:57:03;;;;;;;1.08;0.98;;;10.30;99.90;;;;;;4947730;28;20112;-78
2024/01/02 12:59:30;;;;;;;0.60;0.60;;;10.30;99.90;;;;;;4946182;28;20039;-78